sensor_id;sensor_type;location;lat;lon;timestamp;pressure;altitude;pressure_sealevel;temperature;humidity
48790;BME280;41718;51.980;5.734;2024-03-07T00:01:36;102536.16;;;1.96;nan
48790;BME280;41718;51.980;5.734;2024-03-07T00:06:44;102541.41;;;1.92;nan
48790;BME280;41718;51.980;5.734;2024-03-07T00:11:46;102537.53;;;2.17;nan
48790;BME280;41718;51.980;5.734;2024-03-07T00:16:50;102535.44;;;2.40;nan
48790;BME280;41718;51.980;5.734;2024-03-07T00:21:59;102541.44;;;2.43;nan
48790;BME280;41718;51.980;5.734;2024-03-07T00:27:01;102546.47;;;2.53;nan
48790;BME280;41718;51.980;5.734;2024-03-07T00:32:04;102543.84;;;2.53;nan
48790;BME280;41718;51.980;5.734;2024-03-07T00:37:06;102539.69;;;2.42;nan
48790;BME280;41718;51.980;5.734;2024-03-07T00:42:09;102535.03;;;2.11;nan
48790;BME280;41718;51.980;5.734;2024-03-07T00:47:11;102536.03;;;2.02;nan
48790;BME280;41718;51.980;5.734;2024-03-07T00:52:14;102539.34;;;2.13;nan
48790;BME280;41718;51.980;5.734;2024-03-07T00:57:17;102534.25;;;2.06;nan
48790;BME280;41718;51.980;5.734;2024-03-07T01:02:19;102526.44;;;2.07;nan
48790;BME280;41718;51.980;5.734;2024-03-07T01:07:34;102536.19;;;1.93;100.00
48790;BME280;41718;51.980;5.734;2024-03-07T01:12:36;102528.50;;;1.86;100.00
48790;BME280;41718;51.980;5.734;2024-03-07T01:17:38;102532.75;;;1.91;100.00
48790;BME280;41718;51.980;5.734;2024-03-07T01:22:40;102530.03;;;1.41;100.00
48790;BME280;41718;51.980;5.734;2024-03-07T01:27:42;102536.16;;;1.35;100.00
48790;BME280;41718;51.980;5.734;2024-03-07T01:32:44;102529.53;;;1.12;100.00
48790;BME280;41718;51.980;5.734;2024-03-07T01:37:46;102526.13;;;1.05;100.00
48790;BME280;41718;51.980;5.734;2024-03-07T01:42:50;102527.94;;;0.99;100.00
48790;BME280;41718;51.980;5.734;2024-03-07T01:47:52;102525.47;;;0.90;100.00
48790;BME280;41718;51.980;5.734;2024-03-07T01:52:54;102520.28;;;0.88;100.00
48790;BME280;41718;51.980;5.734;2024-03-07T01:57:59;102514.94;;;0.99;100.00
48790;BME280;41718;51.980;5.734;2024-03-07T02:03:02;102520.25;;;0.91;100.00
48790;BME280;41718;51.980;5.734;2024-03-07T02:08:04;102510.13;;;1.38;100.00
48790;BME280;41718;51.980;5.734;2024-03-07T02:13:06;102503.28;;;1.33;100.00
48790;BME280;41718;51.980;5.734;2024-03-07T02:18:08;102498.84;;;1.39;100.00
48790;BME280;41718;51.980;5.734;2024-03-07T02:23:11;102500.94;;;1.12;100.00
48790;BME280;41718;51.980;5.734;2024-03-07T02:28:13;102500.78;;;1.24;100.00
48790;BME280;41718;51.980;5.734;2024-03-07T02:33:17;102494.16;;;1.02;100.00
48790;BME280;41718;51.980;5.734;2024-03-07T02:38:19;102497.56;;;1.07;100.00
48790;BME280;41718;51.980;5.734;2024-03-07T02:43:21;102491.84;;;0.76;100.00
48790;BME280;41718;51.980;5.734;2024-03-07T02:48:23;102483.31;;;0.66;100.00
48790;BME280;41718;51.980;5.734;2024-03-07T02:53:25;102497.34;;;0.47;100.00
48790;BME280;41718;51.980;5.734;2024-03-07T02:58:27;102497.22;;;0.61;100.00
48790;BME280;41718;51.980;5.734;2024-03-07T03:03:30;102488.38;;;0.80;100.00
48790;BME280;41718;51.980;5.734;2024-03-07T03:08:33;102489.97;;;0.89;100.00
48790;BME280;41718;51.980;5.734;2024-03-07T03:13:40;102478.81;;;0.80;100.00
48790;BME280;41718;51.980;5.734;2024-03-07T03:18:42;102469.31;;;0.79;100.00
48790;BME280;41718;51.980;5.734;2024-03-07T03:23:45;102465.88;;;0.76;100.00
48790;BME280;41718;51.980;5.734;2024-03-07T03:28:47;102466.88;;;0.67;100.00
48790;BME280;41718;51.980;5.734;2024-03-07T03:33:49;102461.13;;;1.10;100.00
48790;BME280;41718;51.980;5.734;2024-03-07T03:38:52;102466.97;;;1.25;100.00
48790;BME280;41718;51.980;5.734;2024-03-07T03:43:54;102460.94;;;1.23;100.00
48790;BME280;41718;51.980;5.734;2024-03-07T03:48:56;102458.34;;;1.25;100.00
48790;BME280;41718;51.980;5.734;2024-03-07T03:53:59;102461.59;;;1.39;100.00
48790;BME280;41718;51.980;5.734;2024-03-07T03:59:01;102466.91;;;1.31;100.00
48790;BME280;41718;51.980;5.734;2024-03-07T04:04:03;102456.47;;;1.34;100.00
48790;BME280;41718;51.980;5.734;2024-03-07T04:09:07;102453.91;;;1.31;100.00
48790;BME280;41718;51.980;5.734;2024-03-07T04:14:09;102446.94;;;1.35;100.00
48790;BME280;41718;51.980;5.734;2024-03-07T04:19:11;102452.09;;;1.36;100.00
48790;BME280;41718;51.980;5.734;2024-03-07T04:24:13;102452.06;;;1.38;100.00
48790;BME280;41718;51.980;5.734;2024-03-07T04:29:15;102449.63;;;1.27;100.00
48790;BME280;41718;51.980;5.734;2024-03-07T04:34:18;102447.00;;;1.29;100.00
48790;BME280;41718;51.980;5.734;2024-03-07T04:39:20;102449.81;;;1.14;100.00
48790;BME280;41718;51.980;5.734;2024-03-07T04:44:36;102447.34;;;1.05;100.00
48790;BME280;41718;51.980;5.734;2024-03-07T04:49:38;102436.25;;;0.91;100.00
48790;BME280;41718;51.980;5.734;2024-03-07T04:54:42;102444.81;;;1.00;100.00
48790;BME280;41718;51.980;5.734;2024-03-07T04:59:44;102445.66;;;1.01;100.00
48790;BME280;41718;51.980;5.734;2024-03-07T05:04:46;102444.69;;;1.08;100.00
48790;BME280;41718;51.980;5.734;2024-03-07T05:09:51;102440.41;;;1.05;100.00
48790;BME280;41718;51.980;5.734;2024-03-07T05:14:53;102443.91;;;1.01;100.00
48790;BME280;41718;51.980;5.734;2024-03-07T05:19:55;102436.34;;;0.86;100.00
48790;BME280;41718;51.980;5.734;2024-03-07T05:24:57;102445.28;;;0.62;100.00
48790;BME280;41718;51.980;5.734;2024-03-07T05:30:02;102448.75;;;0.60;100.00
48790;BME280;41718;51.980;5.734;2024-03-07T05:35:07;102455.72;;;0.59;100.00
48790;BME280;41718;51.980;5.734;2024-03-07T05:40:09;102451.25;;;0.69;100.00
48790;BME280;41718;51.980;5.734;2024-03-07T05:45:11;102453.03;;;0.64;100.00
48790;BME280;41718;51.980;5.734;2024-03-07T05:50:13;102454.03;;;0.55;100.00
48790;BME280;41718;51.980;5.734;2024-03-07T05:55:15;102455.44;;;0.82;100.00
48790;BME280;41718;51.980;5.734;2024-03-07T06:00:20;102449.34;;;0.83;100.00
48790;BME280;41718;51.980;5.734;2024-03-07T06:05:29;102452.78;;;0.88;100.00
48790;BME280;41718;51.980;5.734;2024-03-07T06:10:31;102446.66;;;0.91;100.00
48790;BME280;41718;51.980;5.734;2024-03-07T06:15:39;102451.00;;;0.89;100.00
48790;BME280;41718;51.980;5.734;2024-03-07T06:20:44;102450.13;;;0.91;100.00
48790;BME280;41718;51.980;5.734;2024-03-07T06:25:48;102443.97;;;0.97;100.00
48790;BME280;41718;51.980;5.734;2024-03-07T06:30:58;102459.56;;;0.97;100.00
48790;BME280;41718;51.980;5.734;2024-03-07T06:36:09;102458.72;;;0.95;100.00
48790;BME280;41718;51.980;5.734;2024-03-07T06:41:12;102457.81;;;0.99;100.00
48790;BME280;41718;51.980;5.734;2024-03-07T06:46:20;102455.09;;;1.08;100.00
48790;BME280;41718;51.980;5.734;2024-03-07T06:51:24;102456.75;;;1.15;100.00
48790;BME280;41718;51.980;5.734;2024-03-07T06:56:27;102454.16;;;1.13;100.00
48790;BME280;41718;51.980;5.734;2024-03-07T07:01:30;102453.06;;;1.31;100.00
48790;BME280;41718;51.980;5.734;2024-03-07T07:06:33;102450.28;;;1.43;100.00
48790;BME280;41718;51.980;5.734;2024-03-07T07:11:37;102444.09;;;1.48;100.00
48790;BME280;41718;51.980;5.734;2024-03-07T07:16:42;102444.84;;;1.56;100.00
48790;BME280;41718;51.980;5.734;2024-03-07T07:21:50;102435.19;;;1.64;100.00
48790;BME280;41718;51.980;5.734;2024-03-07T07:26:58;102437.69;;;1.72;100.00
48790;BME280;41718;51.980;5.734;2024-03-07T07:32:03;102446.09;;;1.88;100.00
48790;BME280;41718;51.980;5.734;2024-03-07T07:37:06;102439.81;;;1.99;100.00
48790;BME280;41718;51.980;5.734;2024-03-07T07:42:08;102444.81;;;2.11;100.00
48790;BME280;41718;51.980;5.734;2024-03-07T07:47:13;102447.25;;;2.20;100.00
48790;BME280;41718;51.980;5.734;2024-03-07T07:52:18;102431.44;;;2.31;100.00
48790;BME280;41718;51.980;5.734;2024-03-07T07:57:21;102432.91;;;2.45;100.00
48790;BME280;41718;51.980;5.734;2024-03-07T08:02:28;102437.00;;;2.59;100.00
48790;BME280;41718;51.980;5.734;2024-03-07T08:07:31;102434.97;;;2.73;100.00
48790;BME280;41718;51.980;5.734;2024-03-07T08:12:36;102419.53;;;3.03;100.00
48790;BME280;41718;51.980;5.734;2024-03-07T08:17:47;102417.47;;;3.17;100.00
48790;BME280;41718;51.980;5.734;2024-03-07T08:22:51;102420.53;;;3.36;100.00
48790;BME280;41718;51.980;5.734;2024-03-07T08:27:57;102430.75;;;3.45;100.00
48790;BME280;41718;51.980;5.734;2024-03-07T08:33:00;102418.31;;;3.56;100.00
48790;BME280;41718;51.980;5.734;2024-03-07T08:38:04;102438.09;;;3.65;100.00
48790;BME280;41718;51.980;5.734;2024-03-07T08:43:07;102424.41;;;3.90;100.00
48790;BME280;41718;51.980;5.734;2024-03-07T08:48:09;102421.22;;;4.13;100.00
48790;BME280;41718;51.980;5.734;2024-03-07T08:53:12;102422.44;;;4.32;100.00
48790;BME280;41718;51.980;5.734;2024-03-07T08:58:14;102420.34;;;4.45;100.00
48790;BME280;41718;51.980;5.734;2024-03-07T09:03:16;102405.31;;;4.53;100.00
48790;BME280;41718;51.980;5.734;2024-03-07T09:08:20;102409.28;;;4.96;98.20
48790;BME280;41718;51.980;5.734;2024-03-07T09:13:22;102401.88;;;5.09;96.20
48790;BME280;41718;51.980;5.734;2024-03-07T09:18:24;102397.56;;;5.36;95.64
48790;BME280;41718;51.980;5.734;2024-03-07T09:23:27;102397.22;;;5.46;90.84
48790;BME280;41718;51.980;5.734;2024-03-07T09:28:29;102400.44;;;5.56;94.92
48790;BME280;41718;51.980;5.734;2024-03-07T09:33:31;102390.66;;;5.61;91.76
48790;BME280;41718;51.980;5.734;2024-03-07T09:38:33;102388.94;;;5.60;86.76
48790;BME280;41718;51.980;5.734;2024-03-07T09:43:35;102385.88;;;5.73;86.58
48790;BME280;41718;51.980;5.734;2024-03-07T09:48:39;102371.88;;;6.01;86.04
48790;BME280;41718;51.980;5.734;2024-03-07T09:53:41;102386.94;;;5.94;84.70
48790;BME280;41718;51.980;5.734;2024-03-07T09:58:50;102371.22;;;5.94;84.13
48790;BME280;41718;51.980;5.734;2024-03-07T10:03:58;102365.84;;;5.99;83.31
48790;BME280;41718;51.980;5.734;2024-03-07T10:09:06;102365.03;;;6.21;81.12
48790;BME280;41718;51.980;5.734;2024-03-07T10:14:12;102357.47;;;6.37;77.15
48790;BME280;41718;51.980;5.734;2024-03-07T10:19:14;102358.50;;;6.56;78.42
48790;BME280;41718;51.980;5.734;2024-03-07T10:24:16;102339.84;;;6.87;78.58
48790;BME280;41718;51.980;5.734;2024-03-07T10:29:18;102348.16;;;6.98;74.13
48790;BME280;41718;51.980;5.734;2024-03-07T10:34:20;102350.47;;;7.05;72.92
48790;BME280;41718;51.980;5.734;2024-03-07T10:39:25;102355.66;;;7.07;74.34
48790;BME280;41718;51.980;5.734;2024-03-07T10:44:28;102350.59;;;7.66;74.79
48790;BME280;41718;51.980;5.734;2024-03-07T10:49:36;102355.47;;;7.75;73.04
48790;BME280;41718;51.980;5.734;2024-03-07T11:00:15;102342.25;;;8.37;70.86
48790;BME280;41718;51.980;5.734;2024-03-07T11:05:39;102340.22;;;8.03;69.88
48790;BME280;41718;51.980;5.734;2024-03-07T11:10:42;102328.00;;;8.61;69.64
48790;BME280;41718;51.980;5.734;2024-03-07T11:15:48;102340.53;;;8.36;68.91
48790;BME280;41718;51.980;5.734;2024-03-07T11:20:50;102322.53;;;8.47;68.92
48790;BME280;41718;51.980;5.734;2024-03-07T11:26:01;102315.34;;;8.50;68.54
48790;BME280;41718;51.980;5.734;2024-03-07T11:36:45;102310.00;;;8.70;67.10
48790;BME280;41718;51.980;5.734;2024-03-07T11:41:47;102300.66;;;9.00;65.36
48790;BME280;41718;51.980;5.734;2024-03-07T11:46:50;102298.03;;;9.53;62.17
48790;BME280;41718;51.980;5.734;2024-03-07T11:51:52;102289.50;;;9.31;62.59
48790;BME280;41718;51.980;5.734;2024-03-07T11:56:55;102277.59;;;9.05;62.18
48790;BME280;41718;51.980;5.734;2024-03-07T12:01:58;102263.69;;;9.72;62.29
48790;BME280;41718;51.980;5.734;2024-03-07T12:07:03;102260.25;;;9.01;62.77
48790;BME280;41718;51.980;5.734;2024-03-07T12:12:08;102253.84;;;9.24;63.88
48790;BME280;41718;51.980;5.734;2024-03-07T12:17:11;102236.59;;;9.85;64.28
48790;BME280;41718;51.980;5.734;2024-03-07T12:22:14;102236.97;;;9.62;63.73
48790;BME280;41718;51.980;5.734;2024-03-07T12:27:40;102236.59;;;9.36;62.92
48790;BME280;41718;51.980;5.734;2024-03-07T12:32:49;102219.44;;;9.61;64.17
48790;BME280;41718;51.980;5.734;2024-03-07T12:37:52;102211.97;;;9.37;64.79
48790;BME280;41718;51.980;5.734;2024-03-07T12:42:55;102201.78;;;9.63;63.98
48790;BME280;41718;51.980;5.734;2024-03-07T12:47:59;102187.50;;;9.67;64.13
48790;BME280;41718;51.980;5.734;2024-03-07T12:53:07;102180.13;;;9.58;64.51
48790;BME280;41718;51.980;5.734;2024-03-07T12:58:13;102185.56;;;9.71;66.89
48790;BME280;41718;51.980;5.734;2024-03-07T13:03:17;102173.50;;;9.17;67.93
48790;BME280;41718;51.980;5.734;2024-03-07T13:08:19;102183.72;;;9.06;70.75
48790;BME280;41718;51.980;5.734;2024-03-07T13:13:25;102179.06;;;8.94;72.20
48790;BME280;41718;51.980;5.734;2024-03-07T13:18:30;102181.84;;;8.91;71.88
48790;BME280;41718;51.980;5.734;2024-03-07T13:23:39;102164.75;;;9.17;74.36
48790;BME280;41718;51.980;5.734;2024-03-07T13:28:47;102158.13;;;9.42;73.46
48790;BME280;41718;51.980;5.734;2024-03-07T13:33:49;102163.50;;;9.06;73.96
48790;BME280;41718;51.980;5.734;2024-03-07T13:38:54;102157.75;;;9.50;74.75
48790;BME280;41718;51.980;5.734;2024-03-07T13:44:09;102154.38;;;8.96;74.48
48790;BME280;41718;51.980;5.734;2024-03-07T13:49:11;102150.72;;;8.82;75.98
48790;BME280;41718;51.980;5.734;2024-03-07T13:54:19;102159.94;;;8.73;78.20
48790;BME280;41718;51.980;5.734;2024-03-07T13:59:59;102141.00;;;8.48;79.53
48790;BME280;41718;51.980;5.734;2024-03-07T14:23:07;102136.72;;;8.10;81.94
48790;BME280;41718;51.980;5.734;2024-03-07T14:35:14;102123.69;;;8.07;80.75
48790;BME280;41718;51.980;5.734;2024-03-07T14:40:24;102121.03;;;8.08;80.57
48790;BME280;41718;51.980;5.734;2024-03-07T14:45:41;102123.50;;;7.93;79.52
48790;BME280;41718;51.980;5.734;2024-03-07T14:51:12;102116.38;;;8.13;80.21
48790;BME280;41718;51.980;5.734;2024-03-07T14:56:20;102111.22;;;8.12;78.59
48790;BME280;41718;51.980;5.734;2024-03-07T15:01:25;102104.66;;;8.20;77.66
48790;BME280;41718;51.980;5.734;2024-03-07T15:06:29;102098.97;;;8.30;77.09
48790;BME280;41718;51.980;5.734;2024-03-07T15:11:36;102093.50;;;8.34;77.91
48790;BME280;41718;51.980;5.734;2024-03-07T15:16:49;102080.66;;;8.28;77.17
48790;BME280;41718;51.980;5.734;2024-03-07T15:21:53;102082.50;;;8.07;78.40
48790;BME280;41718;51.980;5.734;2024-03-07T15:26:55;102065.00;;;7.89;79.73
48790;BME280;41718;51.980;5.734;2024-03-07T15:32:19;102067.19;;;7.98;79.74
48790;BME280;41718;51.980;5.734;2024-03-07T15:37:24;102067.41;;;7.94;80.75
48790;BME280;41718;51.980;5.734;2024-03-07T15:42:28;102056.63;;;8.00;80.93
48790;BME280;41718;51.980;5.734;2024-03-07T15:47:38;102049.66;;;7.99;80.68
48790;BME280;41718;51.980;5.734;2024-03-07T15:52:51;102040.09;;;7.79;81.21
48790;BME280;41718;51.980;5.734;2024-03-07T15:57:56;102042.09;;;7.74;82.17
48790;BME280;41718;51.980;5.734;2024-03-07T16:03:07;102036.13;;;7.71;83.69
48790;BME280;41718;51.980;5.734;2024-03-07T16:08:15;102024.19;;;7.64;83.74
48790;BME280;41718;51.980;5.734;2024-03-07T16:13:24;102026.22;;;7.59;84.87
48790;BME280;41718;51.980;5.734;2024-03-07T16:18:43;102013.19;;;7.56;83.95
48790;BME280;41718;51.980;5.734;2024-03-07T16:23:49;102011.88;;;7.47;84.66
48790;BME280;41718;51.980;5.734;2024-03-07T16:28:59;102004.13;;;7.44;84.83
48790;BME280;41718;51.980;5.734;2024-03-07T16:34:02;102000.81;;;7.40;85.23
48790;BME280;41718;51.980;5.734;2024-03-07T16:39:07;101992.16;;;7.38;85.00
48790;BME280;41718;51.980;5.734;2024-03-07T16:44:17;101998.97;;;7.42;85.91
48790;BME280;41718;51.980;5.734;2024-03-07T16:49:24;101987.25;;;7.31;86.20
48790;BME280;41718;51.980;5.734;2024-03-07T16:54:28;101983.34;;;7.21;85.70
48790;BME280;41718;51.980;5.734;2024-03-07T16:59:33;101983.34;;;7.21;86.57
48790;BME280;41718;51.980;5.734;2024-03-07T17:04:51;101991.06;;;7.05;88.23
48790;BME280;41718;51.980;5.734;2024-03-07T17:09:54;101990.50;;;6.99;88.85
48790;BME280;41718;51.980;5.734;2024-03-07T17:14:57;101993.66;;;6.87;88.66
48790;BME280;41718;51.980;5.734;2024-03-07T17:20:00;102002.00;;;6.76;88.67
48790;BME280;41718;51.980;5.734;2024-03-07T17:25:05;102004.47;;;6.59;89.94
48790;BME280;41718;51.980;5.734;2024-03-07T17:30:19;101994.16;;;6.36;90.05
48790;BME280;41718;51.980;5.734;2024-03-07T17:35:27;101988.81;;;6.17;91.15
48790;BME280;41718;51.980;5.734;2024-03-07T17:40:32;101998.88;;;6.06;91.48
48790;BME280;41718;51.980;5.734;2024-03-07T17:45:38;101997.69;;;5.93;92.25
48790;BME280;41718;51.980;5.734;2024-03-07T17:50:44;102000.03;;;5.77;92.78
48790;BME280;41718;51.980;5.734;2024-03-07T17:55:47;101999.38;;;5.72;92.43
48790;BME280;41718;51.980;5.734;2024-03-07T18:00:49;102003.06;;;5.67;93.46
48790;BME280;41718;51.980;5.734;2024-03-07T18:05:56;102004.94;;;5.63;93.16
48790;BME280;41718;51.980;5.734;2024-03-07T18:10:58;101998.94;;;5.61;93.34
48790;BME280;41718;51.980;5.734;2024-03-07T18:16:02;102005.75;;;5.65;92.91
48790;BME280;41718;51.980;5.734;2024-03-07T18:21:05;102007.63;;;5.62;92.82
48790;BME280;41718;51.980;5.734;2024-03-07T18:26:07;102001.53;;;5.61;92.80
48790;BME280;41718;51.980;5.734;2024-03-07T18:31:14;102010.44;;;5.57;93.56
48790;BME280;41718;51.980;5.734;2024-03-07T18:36:17;102010.59;;;5.53;93.05
48790;BME280;41718;51.980;5.734;2024-03-07T18:41:22;102002.25;;;5.43;93.52
48790;BME280;41718;51.980;5.734;2024-03-07T18:46:24;102002.72;;;5.31;94.07
48790;BME280;41718;51.980;5.734;2024-03-07T18:51:27;102007.41;;;5.23;94.50
48790;BME280;41718;51.980;5.734;2024-03-07T18:56:30;102004.25;;;5.14;95.51
48790;BME280;41718;51.980;5.734;2024-03-07T19:01:32;102006.53;;;4.99;96.66
48790;BME280;41718;51.980;5.734;2024-03-07T19:06:39;101990.16;;;4.94;96.89
48790;BME280;41718;51.980;5.734;2024-03-07T19:11:44;102005.00;;;4.94;97.32
48790;BME280;41718;51.980;5.734;2024-03-07T19:16:47;101993.03;;;4.87;97.86
48790;BME280;41718;51.980;5.734;2024-03-07T19:21:53;101992.59;;;4.76;98.67
48790;BME280;41718;51.980;5.734;2024-03-07T19:26:55;101986.59;;;4.72;99.45
48790;BME280;41718;51.980;5.734;2024-03-07T19:31:58;101997.38;;;4.63;100.00
48790;BME280;41718;51.980;5.734;2024-03-07T19:37:00;101993.97;;;4.61;100.00
48790;BME280;41718;51.980;5.734;2024-03-07T19:42:02;101992.69;;;4.48;100.00
48790;BME280;41718;51.980;5.734;2024-03-07T19:47:10;101992.00;;;4.43;100.00
48790;BME280;41718;51.980;5.734;2024-03-07T19:52:15;101986.22;;;4.34;100.00
48790;BME280;41718;51.980;5.734;2024-03-07T19:57:17;101977.72;;;4.29;100.00
48790;BME280;41718;51.980;5.734;2024-03-07T20:02:21;101984.94;;;4.21;100.00
48790;BME280;41718;51.980;5.734;2024-03-07T20:07:23;101984.28;;;4.14;100.00
48790;BME280;41718;51.980;5.734;2024-03-07T20:12:26;101982.72;;;4.08;100.00
48790;BME280;41718;51.980;5.734;2024-03-07T20:17:28;101988.13;;;4.04;100.00
48790;BME280;41718;51.980;5.734;2024-03-07T20:22:30;101983.91;;;4.00;100.00
48790;BME280;41718;51.980;5.734;2024-03-07T20:27:32;101980.50;;;3.98;100.00
48790;BME280;41718;51.980;5.734;2024-03-07T20:32:37;101975.56;;;3.89;100.00
48790;BME280;41718;51.980;5.734;2024-03-07T20:37:44;101961.78;;;3.84;100.00
48790;BME280;41718;51.980;5.734;2024-03-07T20:42:53;101959.44;;;3.76;100.00
48790;BME280;41718;51.980;5.734;2024-03-07T20:47:59;101956.06;;;3.73;100.00
48790;BME280;41718;51.980;5.734;2024-03-07T20:53:05;101953.75;;;3.64;100.00
48790;BME280;41718;51.980;5.734;2024-03-07T20:58:09;101956.34;;;3.64;100.00
48790;BME280;41718;51.980;5.734;2024-03-07T21:03:15;101941.75;;;3.58;100.00
48790;BME280;41718;51.980;5.734;2024-03-07T21:08:44;101944.63;;;3.51;100.00
48790;BME280;41718;51.980;5.734;2024-03-07T21:13:46;101940.03;;;3.57;100.00
48790;BME280;41718;51.980;5.734;2024-03-07T21:18:52;101929.66;;;3.56;100.00
48790;BME280;41718;51.980;5.734;2024-03-07T21:23:58;101931.47;;;3.54;100.00
48790;BME280;41718;51.980;5.734;2024-03-07T21:29:05;101921.03;;;3.54;100.00
48790;BME280;41718;51.980;5.734;2024-03-07T21:34:08;101935.06;;;3.50;100.00
48790;BME280;41718;51.980;5.734;2024-03-07T21:39:12;101929.84;;;3.50;100.00
48790;BME280;41718;51.980;5.734;2024-03-07T21:44:22;101923.28;;;3.38;100.00
48790;BME280;41718;51.980;5.734;2024-03-07T21:49:27;101918.25;;;3.32;100.00
48790;BME280;41718;51.980;5.734;2024-03-07T21:54:29;101920.09;;;3.28;100.00
48790;BME280;41718;51.980;5.734;2024-03-07T21:59:40;101916.69;;;3.26;100.00
48790;BME280;41718;51.980;5.734;2024-03-07T22:04:44;101905.59;;;3.20;100.00
48790;BME280;41718;51.980;5.734;2024-03-07T22:09:55;101911.00;;;3.14;100.00
48790;BME280;41718;51.980;5.734;2024-03-07T22:15:07;101903.44;;;3.05;100.00
48790;BME280;41718;51.980;5.734;2024-03-07T22:20:17;101899.72;;;3.13;100.00
48790;BME280;41718;51.980;5.734;2024-03-07T22:25:23;101897.97;;;3.14;100.00
48790;BME280;41718;51.980;5.734;2024-03-07T22:30:31;101885.22;;;3.05;100.00
48790;BME280;41718;51.980;5.734;2024-03-07T22:35:38;101889.06;;;3.21;100.00
48790;BME280;41718;51.980;5.734;2024-03-07T22:40:49;101889.34;;;3.12;100.00
48790;BME280;41718;51.980;5.734;2024-03-07T22:46:04;101882.47;;;3.09;100.00
48790;BME280;41718;51.980;5.734;2024-03-07T22:51:09;101872.56;;;3.20;99.77
48790;BME280;41718;51.980;5.734;2024-03-07T22:56:12;101877.50;;;3.29;98.32
48790;BME280;41718;51.980;5.734;2024-03-07T23:01:32;101872.97;;;3.34;97.32
48790;BME280;41718;51.980;5.734;2024-03-07T23:06:38;101862.72;;;3.28;97.09
48790;BME280;41718;51.980;5.734;2024-03-07T23:11:42;101861.97;;;3.25;96.61
48790;BME280;41718;51.980;5.734;2024-03-07T23:16:45;101857.69;;;3.24;96.45
48790;BME280;41718;51.980;5.734;2024-03-07T23:21:50;101851.13;;;3.11;97.51
48790;BME280;41718;51.980;5.734;2024-03-07T23:26:55;101837.22;;;3.12;96.58
48790;BME280;41718;51.980;5.734;2024-03-07T23:31:58;101842.72;;;3.03;97.34
48790;BME280;41718;51.980;5.734;2024-03-07T23:37:03;101841.00;;;3.02;96.67
48790;BME280;41718;51.980;5.734;2024-03-07T23:42:07;101840.16;;;3.01;96.45
48790;BME280;41718;51.980;5.734;2024-03-07T23:47:14;101846.38;;;2.96;96.35
48790;BME280;41718;51.980;5.734;2024-03-07T23:52:17;101835.47;;;2.83;97.33
48790;BME280;41718;51.980;5.734;2024-03-07T23:57:23;101839.88;;;2.81;96.81
